Time;durP1;ratioP1;P1;durP2;ratioP2;P2;SDS_P1;SDS_P2;PMS_P1;PMS_P2;Temp;Humidity;BMP_temperature;BMP_pressure;BME280_temperature;BME280_humidity;BME280_pressure;Samples;Min_cycle;Max_cycle;Signal;HPM_P1;HPM_P2
2021/08/30 00:01:25;;;;;;;1.90;1.10;;;26.90;99.90;;;;;;6225260;23;20165;-96
2021/08/30 00:03:57;;;;;;;4.70;1.20;;;27.20;99.90;;;;;;6229125;23;20175;-96
2021/08/30 00:06:30;;;;;;;3.07;1.30;;;27.40;99.90;;;;;;6237365;23;20153;-96
2021/08/30 00:09:01;;;;;;;1.57;1.13;;;27.70;99.90;;;;;;6242826;23;20156;-96
2021/08/30 00:11:33;;;;;;;4.20;1.50;;;27.70;99.90;;;;;;6241059;23;20183;-96
2021/08/30 00:14:07;;;;;;;3.67;1.33;;;27.80;99.90;;;;;;6243508;23;20223;-96
2021/08/30 00:16:39;;;;;;;2.90;1.30;;;27.90;99.90;;;;;;6242236;23;20172;-96
2021/08/30 00:19:12;;;;;;;1.67;0.93;;;28.10;99.90;;;;;;6240792;23;20169;-96
2021/08/30 00:21:44;;;;;;;1.80;1.10;;;28.20;99.90;;;;;;6240645;23;20168;-96
2021/08/30 00:29:42;;;;;;;1.40;0.93;;;27.80;99.90;;;;;;6212129;22;20227;-94
2021/08/30 00:32:14;;;;;;;1.30;1.03;;;27.60;99.90;;;;;;6232142;23;20152;-96
2021/08/30 00:38:03;;;;;;;3.70;1.40;;;27.40;99.90;;;;;;6239249;23;20180;-96
2021/08/30 00:40:36;;;;;;;1.60;1.23;;;27.40;99.90;;;;;;6240919;23;20170;-96
2021/08/30 00:43:10;;;;;;;4.50;1.27;;;27.60;99.90;;;;;;6232274;23;20199;-96
2021/08/30 00:45:45;;;;;;;1.30;1.20;;;27.60;99.90;;;;;;6231821;23;20176;-96
2021/08/30 00:48:22;;;;;;;2.43;1.30;;;27.60;99.90;;;;;;6231716;23;20176;-96
2021/08/30 00:50:54;;;;;;;5.13;1.60;;;27.60;99.90;;;;;;6217886;23;20199;-95
2021/08/30 00:53:27;;;;;;;34.40;2.13;;;27.50;99.90;;;;;;6219942;23;20283;-96
2021/08/30 00:55:59;;;;;;;2.63;1.20;;;27.40;99.90;;;;;;6221789;23;20642;-96
2021/08/30 00:58:31;;;;;;;4.00;1.60;;;27.10;99.90;;;;;;6220758;23;20199;-96
2021/08/30 01:01:05;;;;;;;2.80;1.30;;;27.10;99.90;;;;;;6220675;23;20224;-96
2021/08/30 01:03:38;;;;;;;2.57;1.10;;;27.00;99.90;;;;;;6220691;23;20172;-96
2021/08/30 01:06:17;;;;;;;1.87;1.23;;;27.00;99.90;;;;;;6221107;23;20176;-96
2021/08/30 01:08:57;;;;;;;2.77;1.40;;;26.80;99.90;;;;;;6222121;23;20176;-96
2021/08/30 01:11:36;;;;;;;1.57;1.33;;;26.80;99.90;;;;;;6221682;23;20223;-96
2021/08/30 01:14:12;;;;;;;2.07;1.43;;;26.90;99.90;;;;;;6233434;23;20164;-96
2021/08/30 01:16:48;;;;;;;5.20;1.30;;;27.00;99.90;;;;;;6224667;23;20184;-96
2021/08/30 01:19:26;;;;;;;2.40;1.00;;;27.30;99.90;;;;;;6221977;23;20176;-96
2021/08/30 01:21:58;;;;;;;1.80;1.33;;;27.40;99.90;;;;;;6222801;23;20199;-96
2021/08/30 01:24:56;;;;;;;3.13;1.27;;;27.40;99.90;;;;;;6236785;23;20184;-96
2021/08/30 01:27:42;;;;;;;3.60;1.17;;;27.30;99.90;;;;;;6217703;22;20278;-96
2021/08/30 01:30:26;;;;;;;2.73;1.50;;;27.00;99.90;;;;;;6237143;23;20183;-96
2021/08/30 01:33:06;;;;;;;1.50;1.10;;;26.40;99.90;;;;;;6237059;23;20192;-96
2021/08/30 01:35:40;;;;;;;2.93;1.30;;;25.80;99.90;;;;;;6235466;23;20195;-94
2021/08/30 01:38:14;;;;;;;2.77;1.30;;;25.40;99.90;;;;;;6231201;23;20180;-96
2021/08/30 01:40:49;;;;;;;1.70;1.40;;;25.00;99.90;;;;;;6235273;23;20280;-96
2021/08/30 01:43:22;;;;;;;2.80;1.40;;;24.80;99.90;;;;;;6235217;23;20184;-96
2021/08/30 01:45:55;;;;;;;1.80;1.10;;;24.60;99.90;;;;;;6234864;23;20169;-96
2021/08/30 01:48:31;;;;;;;1.80;1.20;;;24.40;99.90;;;;;;6229006;23;20171;-96
2021/08/30 01:51:03;;;;;;;2.57;1.73;;;24.30;99.90;;;;;;6233940;23;20175;-96
2021/08/30 01:53:36;;;;;;;2.43;1.43;;;24.10;99.90;;;;;;6234479;23;20176;-96
2021/08/30 01:56:09;;;;;;;1.87;1.40;;;24.00;99.90;;;;;;6231635;23;20204;-96
2021/08/30 02:01:29;;;;;;;1.90;1.30;;;23.70;99.90;;;;;;6234291;23;20188;-96
2021/08/30 02:04:03;;;;;;;3.73;1.77;;;23.60;99.90;;;;;;6242422;23;20165;-96
2021/08/30 02:06:36;;;;;;;4.30;1.47;;;23.50;99.90;;;;;;6242283;23;20154;-96
2021/08/30 02:09:07;;;;;;;2.47;1.60;;;23.40;99.90;;;;;;6237172;23;20177;-96
2021/08/30 02:11:40;;;;;;;2.37;1.80;;;23.40;99.90;;;;;;6228293;23;20180;-96
2021/08/30 02:14:11;;;;;;;3.43;1.87;;;23.30;99.90;;;;;;6226252;23;20187;-96
2021/08/30 02:16:42;;;;;;;2.90;1.80;;;23.20;99.90;;;;;;6229398;23;20301;-96
2021/08/30 02:19:27;;;;;;;4.53;1.57;;;23.20;99.90;;;;;;6231585;23;20172;-96
2021/08/30 02:22:04;;;;;;;2.63;1.60;;;23.00;99.90;;;;;;6235702;23;20178;-95
2021/08/30 02:24:40;;;;;;;2.20;1.50;;;22.90;99.90;;;;;;6234445;23;20191;-94
2021/08/30 02:30:24;;;;;;;1.30;1.17;;;22.60;99.90;;;;;;6259879;23;20183;-95
2021/08/30 02:33:02;;;;;;;3.17;1.37;;;22.50;99.90;;;;;;6266890;23;20158;-92
2021/08/30 02:35:38;;;;;;;2.57;1.40;;;22.50;99.90;;;;;;6263756;23;20209;-93
2021/08/30 02:38:11;;;;;;;2.20;1.20;;;22.30;99.90;;;;;;6270745;22;20167;-96
2021/08/30 02:40:46;;;;;;;1.97;1.00;;;22.30;99.90;;;;;;6269656;23;20159;-96
2021/08/30 02:43:20;;;;;;;2.43;1.23;;;22.20;99.90;;;;;;6270303;22;20227;-96
2021/08/30 02:49:56;;;;;;;2.17;1.27;;;22.00;99.90;;;;;;6272239;22;20163;-96
2021/08/30 02:52:30;;;;;;;1.83;1.20;;;21.80;99.90;;;;;;6270339;23;20186;-96
2021/08/30 02:55:02;;;;;;;3.13;1.40;;;21.70;99.90;;;;;;6271415;23;20175;-96
2021/08/30 03:02:58;;;;;;;3.13;1.80;;;21.10;99.90;;;;;;6210488;22;20210;-93
2021/08/30 03:05:32;;;;;;;3.50;2.07;;;21.00;99.90;;;;;;6236005;23;20180;-95
2021/08/30 03:08:10;;;;;;;2.47;1.70;;;20.90;99.90;;;;;;6235828;23;20504;-96
2021/08/30 03:10:47;;;;;;;3.07;1.53;;;20.80;99.90;;;;;;6234715;23;20187;-96
2021/08/30 03:13:20;;;;;;;3.83;1.87;;;20.70;99.90;;;;;;6236132;23;20168;-96
2021/08/30 03:15:52;;;;;;;3.23;1.70;;;20.60;99.90;;;;;;6236385;23;20219;-95
2021/08/30 03:18:25;;;;;;;3.00;1.60;;;20.50;99.90;;;;;;6241990;23;20164;-96
2021/08/30 03:20:58;;;;;;;3.33;1.60;;;20.50;99.90;;;;;;6241771;23;20167;-96
2021/08/30 03:23:33;;;;;;;2.90;1.67;;;20.40;99.90;;;;;;6242037;23;20199;-96
2021/08/30 03:26:05;;;;;;;2.20;1.93;;;20.30;99.90;;;;;;6241914;23;20160;-94
2021/08/30 03:28:38;;;;;;;3.17;1.60;;;20.20;99.90;;;;;;6237904;23;20262;-96
2021/08/30 03:31:10;;;;;;;2.60;1.50;;;20.00;99.90;;;;;;6236201;22;20275;-96
2021/08/30 03:33:44;;;;;;;1.93;1.40;;;20.10;99.90;;;;;;6231718;22;20223;-96
2021/08/30 03:36:17;;;;;;;4.50;1.30;;;20.10;99.90;;;;;;6243411;23;20188;-96
2021/08/30 03:38:51;;;;;;;3.80;1.10;;;20.10;99.90;;;;;;6244253;23;20175;-96
2021/08/30 03:41:23;;;;;;;2.37;1.30;;;20.10;99.90;;;;;;6243808;23;20177;-96
2021/08/30 03:43:56;;;;;;;1.40;1.10;;;20.10;99.90;;;;;;6244140;23;20184;-95
2021/08/30 03:46:28;;;;;;;4.73;1.50;;;20.00;99.90;;;;;;6236748;23;20169;-96
2021/08/30 03:49:00;;;;;;;1.10;1.00;;;20.00;99.90;;;;;;6232203;23;20192;-96
2021/08/30 03:51:35;;;;;;;2.83;1.33;;;19.90;99.90;;;;;;6230615;23;20183;-96
2021/08/30 03:54:11;;;;;;;1.50;1.10;;;19.90;99.90;;;;;;6233909;23;20191;-96
2021/08/30 03:56:45;;;;;;;1.60;1.33;;;19.80;99.90;;;;;;6232911;23;20192;-96
2021/08/30 03:59:18;;;;;;;2.60;1.20;;;19.70;99.90;;;;;;6233878;23;20171;-96
2021/08/30 04:01:53;;;;;;;1.30;1.20;;;19.70;99.90;;;;;;6241631;23;20164;-94
2021/08/30 04:04:26;;;;;;;4.53;1.33;;;19.60;99.90;;;;;;6239151;23;20176;-95
2021/08/30 04:07:03;;;;;;;2.17;1.20;;;19.50;99.90;;;;;;6230228;23;20236;-96
2021/08/30 04:09:36;;;;;;;1.67;1.20;;;19.40;99.90;;;;;;6221550;23;20168;-96
2021/08/30 04:12:08;;;;;;;1.03;0.97;;;19.40;99.90;;;;;;6231133;23;20165;-96
2021/08/30 04:14:44;;;;;;;1.70;1.03;;;19.30;99.90;;;;;;6234885;23;20161;-96
2021/08/30 04:17:17;;;;;;;1.90;1.20;;;19.20;99.90;;;;;;6234779;23;20212;-95
2021/08/30 04:19:48;;;;;;;1.07;0.80;;;19.10;99.90;;;;;;6238980;23;20176;-95
2021/08/30 04:22:20;;;;;;;1.10;1.00;;;19.10;99.90;;;;;;6235270;23;20183;-94
2021/08/30 04:24:55;;;;;;;1.77;1.10;;;19.00;99.90;;;;;;6243881;23;20164;-95
2021/08/30 04:27:26;;;;;;;1.57;1.00;;;18.90;99.90;;;;;;6243853;23;20196;-95
2021/08/30 04:29:59;;;;;;;1.87;1.20;;;18.90;99.90;;;;;;6242790;23;20165;-96
2021/08/30 04:32:33;;;;;;;1.57;1.30;;;18.80;99.90;;;;;;6238197;23;20177;-96
2021/08/30 04:35:06;;;;;;;1.47;1.30;;;18.70;99.90;;;;;;6266268;23;20212;-94
2021/08/30 04:37:38;;;;;;;1.30;1.10;;;18.70;99.90;;;;;;6273895;22;20206;-95
2021/08/30 04:40:14;;;;;;;2.13;1.10;;;18.60;99.90;;;;;;6271471;22;20186;-95
2021/08/30 04:42:46;;;;;;;1.67;0.97;;;18.50;99.90;;;;;;6246028;23;20224;-95
2021/08/30 04:45:18;;;;;;;1.47;1.00;;;18.50;99.90;;;;;;6268490;23;20168;-95
2021/08/30 04:47:50;;;;;;;1.23;1.10;;;18.40;99.90;;;;;;6261617;23;20266;-95
2021/08/30 04:50:22;;;;;;;1.47;1.03;;;18.30;99.90;;;;;;6255708;23;20187;-96
2021/08/30 04:52:54;;;;;;;1.37;1.10;;;18.20;99.90;;;;;;6250530;23;20172;-96
2021/08/30 04:55:28;;;;;;;1.03;0.90;;;18.10;99.90;;;;;;6251476;23;20561;-96
2021/08/30 05:00:36;;;;;;;3.93;1.20;;;17.90;99.90;;;;;;6232622;22;20208;-95
2021/08/30 05:03:08;;;;;;;1.97;1.10;;;17.90;99.90;;;;;;6220305;23;20255;-95
2021/08/30 05:05:39;;;;;;;1.47;1.10;;;17.80;99.90;;;;;;6225138;23;20179;-95
2021/08/30 05:08:22;;;;;;;1.60;1.30;;;17.80;99.90;;;;;;6232224;23;20176;-92
2021/08/30 05:10:57;;;;;;;4.93;1.40;;;17.60;99.90;;;;;;6222966;23;20199;-96
2021/08/30 05:13:32;;;;;;;1.73;1.30;;;17.60;99.90;;;;;;6219217;23;20521;-95
2021/08/30 05:16:03;;;;;;;2.43;1.20;;;17.50;99.90;;;;;;6220381;23;20183;-96
2021/08/30 05:18:40;;;;;;;3.30;1.40;;;17.40;99.90;;;;;;6219926;23;20247;-95
2021/08/30 05:21:11;;;;;;;2.60;1.50;;;17.40;99.90;;;;;;6218614;23;20176;-96
2021/08/30 05:23:44;;;;;;;2.97;1.40;;;17.30;99.90;;;;;;6220169;23;20164;-95
2021/08/30 05:26:17;;;;;;;2.43;1.53;;;17.20;99.90;;;;;;6220437;23;20176;-95
2021/08/30 05:28:49;;;;;;;4.03;1.50;;;17.20;99.90;;;;;;6221128;23;20497;-96
2021/08/30 05:31:23;;;;;;;2.73;1.50;;;17.10;99.90;;;;;;6220511;23;20176;-96
2021/08/30 05:34:07;;;;;;;5.50;1.67;;;17.00;99.90;;;;;;6230436;23;20188;-96
2021/08/30 05:36:38;;;;;;;3.70;2.00;;;16.90;99.90;;;;;;6228566;23;20252;-96
2021/08/30 05:39:10;;;;;;;3.03;1.87;;;16.80;99.90;;;;;;6228269;23;20169;-96
2021/08/30 05:41:43;;;;;;;4.37;1.70;;;16.80;99.90;;;;;;6220146;23;20177;-95
2021/08/30 05:44:14;;;;;;;5.60;1.90;;;16.70;99.90;;;;;;6220728;23;20199;-96
2021/08/30 05:46:46;;;;;;;5.73;1.57;;;16.70;99.90;;;;;;6221273;23;20200;-95
2021/08/30 05:49:17;;;;;;;2.97;1.70;;;16.70;99.90;;;;;;6220549;23;20191;-96
2021/08/30 05:51:48;;;;;;;2.80;1.53;;;16.60;99.90;;;;;;6219240;23;20196;-96
2021/08/30 05:54:20;;;;;;;4.17;1.60;;;16.60;99.90;;;;;;6220755;23;20180;-96
2021/08/30 05:56:56;;;;;;;4.03;1.60;;;16.50;99.90;;;;;;6223321;23;20510;-95
2021/08/30 05:59:27;;;;;;;3.10;1.73;;;16.50;99.90;;;;;;6235292;23;20195;-96
2021/08/30 06:01:59;;;;;;;5.50;1.80;;;16.50;99.90;;;;;;6249847;23;20195;-96
2021/08/30 06:04:32;;;;;;;2.20;1.60;;;16.50;99.90;;;;;;6225910;23;20172;-96
2021/08/30 06:07:03;;;;;;;36.67;2.90;;;16.40;99.90;;;;;;6224454;23;20183;-96
2021/08/30 06:09:40;;;;;;;3.17;1.50;;;16.40;99.90;;;;;;6252828;23;20190;-96
2021/08/30 06:12:15;;;;;;;3.33;1.70;;;16.40;99.90;;;;;;6254202;23;20494;-96
2021/08/30 06:14:47;;;;;;;5.77;2.10;;;16.30;99.90;;;;;;6258456;23;20175;-96
2021/08/30 06:17:19;;;;;;;2.23;1.57;;;16.20;99.90;;;;;;6234170;23;20204;-96
2021/08/30 06:19:51;;;;;;;2.77;1.70;;;16.20;99.90;;;;;;6251385;23;20195;-95
2021/08/30 06:22:22;;;;;;;3.87;1.70;;;16.20;99.90;;;;;;6250356;23;20176;-95
2021/08/30 06:24:53;;;;;;;4.03;1.53;;;16.10;99.90;;;;;;6251940;23;20182;-96
2021/08/30 06:27:27;;;;;;;2.47;1.30;;;16.10;99.90;;;;;;6251838;23;20216;-96
2021/08/30 06:29:58;;;;;;;4.23;1.60;;;16.00;99.90;;;;;;6251903;23;20212;-96
2021/08/30 06:35:18;;;;;;;2.80;1.80;;;16.00;99.90;;;;;;6265599;23;20206;-96
2021/08/30 06:37:50;;;;;;;7.17;1.97;;;15.90;99.90;;;;;;6252010;23;20223;-94
2021/08/30 06:40:23;;;;;;;3.43;1.47;;;16.00;99.90;;;;;;6258483;23;20171;-95
2021/08/30 06:42:56;;;;;;;2.90;1.50;;;15.90;99.90;;;;;;6269837;22;20179;-95
2021/08/30 06:45:28;;;;;;;4.27;1.70;;;15.90;99.90;;;;;;6271667;22;20198;-96
2021/08/30 06:47:59;;;;;;;2.77;1.60;;;15.80;99.90;;;;;;6259464;23;20175;-95
2021/08/30 06:50:33;;;;;;;4.83;1.77;;;15.80;99.90;;;;;;6251495;23;20171;-96
2021/08/30 06:53:06;;;;;;;4.17;1.73;;;15.80;99.90;;;;;;6225466;23;20175;-95
2021/08/30 06:55:38;;;;;;;4.33;1.80;;;15.80;99.90;;;;;;6250723;23;20180;-95
2021/08/30 06:58:11;;;;;;;6.30;2.20;;;15.80;99.90;;;;;;6250037;23;20194;-95
2021/08/30 07:00:43;;;;;;;3.83;1.70;;;15.90;99.90;;;;;;6248955;23;20222;-95
2021/08/30 07:03:15;;;;;;;3.90;1.70;;;15.80;99.90;;;;;;6224783;23;20176;-95
2021/08/30 07:05:49;;;;;;;5.30;1.93;;;15.80;99.90;;;;;;6253805;23;20182;-95
2021/08/30 07:08:20;;;;;;;4.73;1.60;;;15.70;99.90;;;;;;6255152;23;20209;-96
2021/08/30 07:10:52;;;;;;;3.67;1.83;;;15.70;99.90;;;;;;6258321;23;20171;-96
2021/08/30 07:13:25;;;;;;;6.07;2.10;;;15.60;99.90;;;;;;6260878;23;20175;-96
2021/08/30 07:15:56;;;;;;;3.07;2.00;;;15.60;99.90;;;;;;6260343;23;20518;-96
2021/08/30 07:18:28;;;;;;;4.73;2.10;;;15.60;99.90;;;;;;6263672;23;20222;-96
2021/08/30 07:20:59;;;;;;;4.07;2.00;;;15.60;99.90;;;;;;6260968;23;20176;-96
2021/08/30 07:23:31;;;;;;;5.73;2.50;;;15.50;99.90;;;;;;6263111;23;20509;-96
2021/08/30 07:26:02;;;;;;;3.23;1.80;;;15.40;99.90;;;;;;6262865;23;20198;-96
2021/08/30 07:28:36;;;;;;;3.93;2.13;;;15.40;99.90;;;;;;6260266;23;20182;-96
2021/08/30 07:31:07;;;;;;;6.07;2.20;;;15.30;99.90;;;;;;6260478;23;20171;-96
2021/08/30 07:33:39;;;;;;;5.90;2.20;;;15.30;99.90;;;;;;6262052;23;20183;-96
2021/08/30 07:36:11;;;;;;;3.90;2.20;;;15.20;99.90;;;;;;6236252;23;20255;-96
2021/08/30 07:38:45;;;;;;;4.77;2.20;;;15.20;99.90;;;;;;6259075;23;20203;-96
2021/08/30 07:41:16;;;;;;;5.10;1.73;;;15.20;99.90;;;;;;6255585;23;20206;-96
2021/08/30 07:43:51;;;;;;;7.27;2.20;;;15.10;99.90;;;;;;6231779;23;20206;-96
2021/08/30 07:46:22;;;;;;;3.87;2.00;;;15.10;99.90;;;;;;6258007;23;20195;-96
2021/08/30 07:48:54;;;;;;;4.33;1.87;;;15.00;99.90;;;;;;6257231;23;20199;-96
2021/08/30 07:51:25;;;;;;;3.90;1.80;;;15.00;99.90;;;;;;6230134;23;20174;-96
2021/08/30 07:53:58;;;;;;;2.47;1.50;;;14.90;99.90;;;;;;6256899;22;20525;-96
2021/08/30 07:56:29;;;;;;;4.27;1.93;;;14.80;99.90;;;;;;6257943;23;20194;-96
2021/08/30 07:59:02;;;;;;;2.83;1.60;;;14.70;99.90;;;;;;6258392;23;20199;-96
2021/08/30 08:01:36;;;;;;;3.63;1.87;;;14.60;99.90;;;;;;6256841;23;20182;-96
2021/08/30 08:04:08;;;;;;;6.17;2.30;;;14.60;99.90;;;;;;6260820;23;20199;-95
2021/08/30 08:06:40;;;;;;;4.20;1.97;;;14.60;99.90;;;;;;6274984;23;20164;-95
2021/08/30 08:09:12;;;;;;;3.73;2.20;;;14.60;99.90;;;;;;6248425;22;20171;-96
2021/08/30 08:11:44;;;;;;;4.73;1.77;;;14.60;99.90;;;;;;6247257;23;20164;-96
2021/08/30 08:14:19;;;;;;;4.60;1.80;;;14.60;99.90;;;;;;6261539;23;20167;-96
2021/08/30 08:16:51;;;;;;;5.00;2.47;;;14.60;99.90;;;;;;6261036;23;20177;-96
2021/08/30 08:19:22;;;;;;;7.93;2.60;;;14.50;99.90;;;;;;6260859;23;20196;-96
2021/08/30 08:21:55;;;;;;;5.30;2.27;;;14.50;99.90;;;;;;6232839;23;20242;-96
2021/08/30 08:24:28;;;;;;;4.90;2.20;;;14.50;99.90;;;;;;6260399;23;20180;-96
2021/08/30 08:27:00;;;;;;;3.90;1.90;;;14.50;99.90;;;;;;6257519;23;20172;-96
2021/08/30 08:29:34;;;;;;;4.07;2.17;;;14.30;99.90;;;;;;6253467;22;20643;-96
2021/08/30 08:32:06;;;;;;;5.80;2.20;;;14.40;99.90;;;;;;6224059;23;20179;-96
2021/08/30 08:34:37;;;;;;;3.43;1.80;;;14.30;99.90;;;;;;6225752;23;20176;-96
2021/08/30 08:37:09;;;;;;;5.43;2.27;;;14.30;99.90;;;;;;6225855;23;20183;-95
2021/08/30 08:39:41;;;;;;;4.80;2.27;;;14.30;99.90;;;;;;6226721;23;20188;-96
2021/08/30 08:42:13;;;;;;;8.33;2.30;;;14.30;99.90;;;;;;6240770;23;20157;-96
2021/08/30 08:44:48;;;;;;;3.53;2.10;;;14.30;99.90;;;;;;6244215;23;20156;-96
2021/08/30 08:47:20;;;;;;;4.83;2.20;;;14.20;99.90;;;;;;6244308;23;20232;-94
2021/08/30 08:49:52;;;;;;;5.10;2.40;;;14.20;99.90;;;;;;6243852;23;20212;-95
2021/08/30 08:52:24;;;;;;;5.97;2.50;;;14.10;99.90;;;;;;6241521;23;20603;-96
2021/08/30 08:54:58;;;;;;;3.20;1.83;;;14.10;99.90;;;;;;6243556;23;20161;-95
2021/08/30 08:57:30;;;;;;;4.43;1.93;;;14.00;99.90;;;;;;6243703;23;20172;-96
2021/08/30 09:00:06;;;;;;;9.43;2.17;;;14.00;99.90;;;;;;6243460;23;20191;-95
2021/08/30 09:02:39;;;;;;;6.70;3.00;;;13.90;99.90;;;;;;6242715;23;20152;-96
2021/08/30 09:05:23;;;;;;;5.07;2.10;;;13.90;99.90;;;;;;6243630;23;20176;-95
2021/08/30 09:07:56;;;;;;;7.73;2.23;;;13.90;99.90;;;;;;6242119;23;20165;-96
2021/08/30 09:10:31;;;;;;;5.10;2.27;;;13.80;99.90;;;;;;6240610;23;20173;-96
2021/08/30 09:13:07;;;;;;;6.60;2.83;;;13.70;99.90;;;;;;6235571;23;20172;-95
2021/08/30 09:15:45;;;;;;;6.57;2.37;;;13.70;99.90;;;;;;6236375;23;20183;-96
2021/08/30 09:18:16;;;;;;;3.63;2.00;;;13.70;99.90;;;;;;6238717;23;20179;-95
2021/08/30 09:20:47;;;;;;;5.33;2.43;;;13.60;99.90;;;;;;6235002;23;20177;-96
2021/08/30 09:23:19;;;;;;;5.27;2.37;;;13.60;99.90;;;;;;6234446;23;20172;-96
2021/08/30 09:26:01;;;;;;;3.30;2.10;;;13.60;99.90;;;;;;6226752;23;20176;-96
2021/08/30 09:28:36;;;;;;;4.40;2.10;;;13.50;99.90;;;;;;6225319;23;20192;-96
2021/08/30 09:31:12;;;;;;;4.33;2.10;;;13.50;99.90;;;;;;6248548;23;20222;-96
2021/08/30 09:33:49;;;;;;;4.13;2.37;;;13.50;99.90;;;;;;6254875;23;20213;-96
2021/08/30 09:36:21;;;;;;;5.27;2.10;;;13.40;99.90;;;;;;6254816;23;20167;-96
2021/08/30 09:38:57;;;;;;;4.37;2.30;;;13.40;99.90;;;;;;6254835;23;20188;-96
2021/08/30 09:41:28;;;;;;;3.93;2.20;;;13.40;99.90;;;;;;6254471;23;20167;-95
2021/08/30 09:44:04;;;;;;;4.87;2.23;;;13.40;99.90;;;;;;6254455;23;20176;-95
2021/08/30 09:46:37;;;;;;;6.33;2.43;;;13.30;99.90;;;;;;6255592;23;20229;-96
2021/08/30 09:49:09;;;;;;;6.20;2.47;;;13.20;99.90;;;;;;6255880;23;20179;-95
2021/08/30 09:51:41;;;;;;;5.27;2.37;;;13.20;99.90;;;;;;6254456;23;20175;-95
2021/08/30 09:54:18;;;;;;;5.60;2.30;;;13.10;99.90;;;;;;6256418;23;20634;-94
2021/08/30 09:56:50;;;;;;;6.50;2.60;;;13.00;99.90;;;;;;6256451;23;20195;-94
2021/08/30 09:59:23;;;;;;;5.20;2.47;;;13.10;99.90;;;;;;6255253;23;20607;-94
2021/08/30 10:04:59;;;;;;;5.77;2.53;;;13.00;99.90;;;;;;6195396;23;20236;-95
2021/08/30 10:07:35;;;;;;;8.47;3.10;;;12.80;99.90;;;;;;6195284;23;20180;-95
2021/08/30 10:10:07;;;;;;;6.13;2.80;;;12.80;99.90;;;;;;6194571;23;20176;-96
2021/08/30 10:12:39;;;;;;;6.17;2.60;;;12.80;99.90;;;;;;6194425;23;20181;-95
2021/08/30 10:15:12;;;;;;;5.30;2.67;;;12.80;99.90;;;;;;6193552;23;20196;-96
2021/08/30 10:17:47;;;;;;;8.07;2.70;;;12.80;99.90;;;;;;6192682;23;20249;-96
2021/08/30 10:20:26;;;;;;;8.23;3.07;;;12.70;99.90;;;;;;6168627;23;20193;-96
2021/08/30 10:23:03;;;;;;;6.70;2.90;;;12.70;99.90;;;;;;6193095;23;20225;-96
2021/08/30 10:25:36;;;;;;;7.37;2.50;;;12.70;99.90;;;;;;6192822;23;20204;-96
2021/08/30 10:28:11;;;;;;;7.10;2.83;;;12.60;99.90;;;;;;6192900;23;20604;-95
2021/08/30 10:30:54;;;;;;;5.50;2.87;;;12.70;99.90;;;;;;6192480;23;20224;-95
2021/08/30 10:33:37;;;;;;;5.07;2.80;;;12.70;99.90;;;;;;6172112;23;20176;-96
2021/08/30 10:36:19;;;;;;;11.53;3.10;;;12.70;99.90;;;;;;6185983;23;20164;-96
2021/08/30 10:39:06;;;;;;;8.13;3.03;;;12.70;99.90;;;;;;6211483;23;20168;-96
2021/08/30 10:41:40;;;;;;;8.03;2.57;;;12.80;99.90;;;;;;6210805;23;20192;-94
2021/08/30 10:44:15;;;;;;;5.73;2.50;;;12.90;99.90;;;;;;6212048;23;20203;-96
2021/08/30 10:49:35;;;;;;;9.87;2.93;;;13.10;99.90;;;;;;6194268;23;20173;-96
2021/08/30 10:52:07;;;;;;;5.47;2.80;;;13.20;99.90;;;;;;6194310;23;20176;-96
2021/08/30 10:54:51;;;;;;;6.33;3.43;;;13.30;99.90;;;;;;6193939;23;20177;-96
2021/08/30 10:57:34;;;;;;;7.40;3.40;;;13.30;99.90;;;;;;6193192;23;20173;-96
2021/08/30 11:00:09;;;;;;;7.37;2.73;;;13.30;99.90;;;;;;6193346;23;20193;-95
2021/08/30 11:02:46;;;;;;;7.27;2.60;;;13.30;99.90;;;;;;6192370;23;20184;-95
2021/08/30 11:05:26;;;;;;;6.67;2.60;;;13.30;99.90;;;;;;6193515;23;20200;-95
2021/08/30 11:07:57;;;;;;;6.07;2.47;;;13.10;99.90;;;;;;6192951;23;20177;-96
2021/08/30 11:10:30;;;;;;;6.57;3.03;;;13.00;99.90;;;;;;6193067;23;20170;-96
2021/08/30 11:13:02;;;;;;;7.07;2.60;;;13.10;99.90;;;;;;6194131;23;20550;-96
2021/08/30 11:15:34;;;;;;;5.00;3.00;;;13.00;99.90;;;;;;6207923;23;20169;-96
2021/08/30 11:18:07;;;;;;;8.97;2.90;;;13.10;99.90;;;;;;6212021;23;20174;-96
2021/08/30 11:20:49;;;;;;;8.93;2.67;;;13.30;99.90;;;;;;6209191;23;20217;-96
2021/08/30 11:23:22;;;;;;;5.37;2.33;;;13.50;99.90;;;;;;6192848;23;20180;-96
2021/08/30 11:25:53;;;;;;;9.80;3.40;;;13.60;99.90;;;;;;6193861;23;20216;-96
2021/08/30 11:28:32;;;;;;;9.47;3.63;;;13.70;99.90;;;;;;6192301;23;20169;-96
2021/08/30 11:31:04;;;;;;;13.10;3.30;;;13.80;99.90;;;;;;6191343;23;20204;-96
2021/08/30 11:33:39;;;;;;;7.83;3.20;;;13.90;99.90;;;;;;6192254;23;20177;-94
2021/08/30 11:36:12;;;;;;;11.90;3.57;;;14.00;99.90;;;;;;6191884;23;20184;-96
2021/08/30 11:38:53;;;;;;;12.83;3.80;;;14.00;99.90;;;;;;6192254;23;20169;-96
2021/08/30 11:41:25;;;;;;;7.77;3.33;;;14.10;99.90;;;;;;6197041;23;20208;-96
2021/08/30 11:44:05;;;;;;;14.43;3.67;;;14.10;99.90;;;;;;6192285;23;20176;-95
2021/08/30 11:46:46;;;;;;;10.90;3.50;;;14.20;99.90;;;;;;6167225;23;20173;-96
2021/08/30 11:49:18;;;;;;;10.90;3.43;;;14.20;99.90;;;;;;6194618;23;20173;-96
2021/08/30 11:51:55;;;;;;;11.33;3.40;;;14.20;99.90;;;;;;6198752;23;20176;-96
2021/08/30 11:54:31;;;;;;;9.07;3.43;;;14.20;99.90;;;;;;6199522;23;20181;-96
2021/08/30 11:57:07;;;;;;;9.40;3.53;;;14.30;99.90;;;;;;6199122;23;20181;-96
2021/08/30 11:59:40;;;;;;;11.17;3.37;;;14.20;99.90;;;;;;6205756;23;20165;-96
2021/08/30 12:02:13;;;;;;;11.80;3.50;;;14.30;99.90;;;;;;6211890;23;20165;-95
2021/08/30 12:04:46;;;;;;;8.77;3.43;;;14.40;99.90;;;;;;6212733;23;20188;-96
2021/08/30 12:07:20;;;;;;;9.60;3.03;;;14.40;99.90;;;;;;6213915;23;20165;-95
2021/08/30 12:09:53;;;;;;;11.67;3.63;;;14.30;99.90;;;;;;6201228;23;20179;-96
2021/08/30 12:12:29;;;;;;;10.83;3.50;;;14.30;99.90;;;;;;6195484;23;20179;-96
2021/08/30 12:15:08;;;;;;;8.23;3.63;;;14.30;99.90;;;;;;6193938;23;20233;-96
2021/08/30 12:17:44;;;;;;;7.17;3.80;;;14.30;99.90;;;;;;6196698;23;20192;-96
2021/08/30 12:20:20;;;;;;;11.63;3.87;;;14.30;99.90;;;;;;6190251;23;20204;-96
2021/08/30 12:22:56;;;;;;;11.20;3.70;;;14.20;99.90;;;;;;6191415;23;20196;-96
2021/08/30 12:25:30;;;;;;;12.43;4.00;;;14.00;99.90;;;;;;6192250;23;20615;-96
2021/08/30 12:28:01;;;;;;;9.30;4.00;;;14.10;99.90;;;;;;6191823;23;20197;-96
2021/08/30 12:30:34;;;;;;;10.30;3.50;;;14.20;99.90;;;;;;6190656;23;20172;-96
2021/08/30 12:33:08;;;;;;;8.83;3.70;;;14.20;99.90;;;;;;6191938;23;20623;-96
2021/08/30 12:35:40;;;;;;;10.60;3.80;;;14.10;99.90;;;;;;6192572;23;20273;-96
2021/08/30 12:38:16;;;;;;;11.30;4.00;;;14.20;99.90;;;;;;6191750;23;20181;-96
2021/08/30 12:40:50;;;;;;;8.93;3.93;;;14.20;99.90;;;;;;6191311;23;20250;-95
2021/08/30 12:43:23;;;;;;;9.97;3.70;;;14.10;99.90;;;;;;6192369;23;20185;-94
2021/08/30 12:45:56;;;;;;;9.27;3.43;;;13.90;99.90;;;;;;6192516;23;20170;-95
2021/08/30 12:48:28;;;;;;;12.00;3.70;;;13.80;99.90;;;;;;6193754;23;20169;-96
2021/08/30 12:50:59;;;;;;;7.40;3.43;;;13.70;99.90;;;;;;6190659;23;20227;-94
2021/08/30 12:53:34;;;;;;;9.53;3.60;;;13.60;99.90;;;;;;6192278;23;20169;-95
2021/08/30 12:56:05;;;;;;;9.50;3.47;;;13.30;99.90;;;;;;6191376;23;20181;-96
2021/08/30 12:58:38;;;;;;;9.03;3.40;;;13.30;99.90;;;;;;6192367;23;20188;-95
2021/08/30 13:01:11;;;;;;;11.90;3.60;;;13.20;99.90;;;;;;6190595;23;20240;-96
2021/08/30 13:03:43;;;;;;;8.60;4.00;;;13.20;99.90;;;;;;6194187;23;20187;-96
2021/08/30 13:06:14;;;;;;;12.57;3.60;;;13.10;99.90;;;;;;6192052;23;20193;-96
2021/08/30 13:08:48;;;;;;;13.73;3.80;;;13.00;99.90;;;;;;6192173;23;20257;-95
2021/08/30 13:11:19;;;;;;;9.23;3.43;;;12.60;99.90;;;;;;6164920;23;20181;-96
2021/08/30 13:13:53;;;;;;;10.70;3.40;;;12.50;99.90;;;;;;6167001;23;20169;-95
2021/08/30 13:16:32;;;;;;;10.20;3.53;;;12.30;99.90;;;;;;6191255;23;20176;-95
2021/08/30 13:19:07;;;;;;;8.57;3.73;;;12.20;99.90;;;;;;6192055;23;20180;-95
2021/08/30 13:21:38;;;;;;;8.60;3.60;;;12.10;99.90;;;;;;6189872;23;20588;-96
2021/08/30 13:24:11;;;;;;;10.23;3.57;;;12.10;99.90;;;;;;6192344;23;20162;-96
2021/08/30 13:26:42;;;;;;;12.00;4.00;;;12.00;99.90;;;;;;6192798;23;20580;-96
2021/08/30 13:29:14;;;;;;;8.83;3.97;;;11.90;99.90;;;;;;6192416;23;20169;-94
2021/08/30 13:31:47;;;;;;;9.37;3.67;;;11.90;99.90;;;;;;6199715;23;20157;-96
2021/08/30 13:34:18;;;;;;;9.73;3.83;;;11.80;99.90;;;;;;6212919;23;20189;-96
2021/08/30 13:36:49;;;;;;;13.50;4.30;;;11.80;99.90;;;;;;6212610;23;20233;-94
2021/08/30 13:39:23;;;;;;;15.50;3.70;;;11.70;99.90;;;;;;6199979;23;20185;-94
2021/08/30 13:41:55;;;;;;;13.43;4.60;;;11.60;99.90;;;;;;6203264;23;20205;-93
2021/08/30 13:44:27;;;;;;;16.77;4.17;;;11.60;99.90;;;;;;6195239;23;20177;-94
2021/08/30 13:46:58;;;;;;;13.77;5.07;;;11.60;99.90;;;;;;6194635;23;20188;-95
2021/08/30 13:49:30;;;;;;;10.90;3.83;;;11.60;99.90;;;;;;6195186;23;20169;-94
2021/08/30 13:52:01;;;;;;;10.50;4.10;;;11.60;99.90;;;;;;6191927;23;20179;-96
2021/08/30 13:54:35;;;;;;;17.07;4.60;;;11.60;99.90;;;;;;6192988;23;20223;-95